Hardy Anders Field Natchez Adams County Airport


Codes: KHEZ/
Name: Hardy Anders Field Natchez Adams County Airport
City: Natchez
Country: United States
Elevation: 272 ft.

Photos at Hardy Anders Field Natchez Adams County Airport


   Photos courtesy of SpottingLog. You can add your own sightings and photos by signing up for a free trial today.



No photos found.

Weather at Hardy Anders Field Natchez Adams County Airport


Time (UTC)DescriptionTempratureWindCloud coverageVisibilityPressureHumidity
21-Jun-2024 12:00Few Clouds23°C4 mph, E20%10000m1021hPa89%
21-Jun-2024 15:00Clear Sky27°C7 mph, E10%10000m1021hPa70%
21-Jun-2024 18:00Few Clouds33°C7 mph, E14%10000m1019hPa46%
21-Jun-2024 21:00Broken Clouds33°C2 mph, SE76%10000m1017hPa52%
22-Jun-2024 00:00Overcast Clouds28°C4 mph, NW85%10000m1017hPa73%
22-Jun-2024 03:00Broken Clouds26°C4 mph, E62%10000m1018hPa74%
22-Jun-2024 06:00Broken Clouds25°C4 mph, SE57%10000m1018hPa74%
22-Jun-2024 09:00Scattered Clouds23°C4 mph, S26%10000m1018hPa91%
22-Jun-2024 12:00Few Clouds23°C2 mph, S12%10000m1018hPa90%
22-Jun-2024 15:00Clear Sky31°C0 mph, NW0%10000m1018hPa60%
22-Jun-2024 18:00Clear Sky35°C2 mph, NE0%10000m1017hPa37%
22-Jun-2024 21:00Clear Sky36°C2 mph, N0%10000m1014hPa32%
23-Jun-2024 00:00Clear Sky31°C7 mph, N9%10000m1013hPa60%
23-Jun-2024 03:00Overcast Clouds26°C0 mph, E99%10000m1014hPa66%
23-Jun-2024 06:00Overcast Clouds25°C4 mph, SW92%10000m1015hPa70%
23-Jun-2024 09:00Few Clouds23°C4 mph, SW13%10000m1015hPa87%
23-Jun-2024 12:00Few Clouds23°C4 mph, SW19%10000m1015hPa90%
23-Jun-2024 15:00Clear Sky30°C4 mph, W6%10000m1016hPa59%
23-Jun-2024 18:00Clear Sky35°C2 mph, NW5%10000m1014hPa44%
23-Jun-2024 21:00Clear Sky35°C7 mph, NW5%10000m1012hPa38%
24-Jun-2024 00:00Clear Sky32°C2 mph, N4%10000m1011hPa57%
24-Jun-2024 03:00Clear Sky26°C4 mph, S0%10000m1012hPa73%
24-Jun-2024 06:00Clear Sky25°C7 mph, SW0%10000m1013hPa79%
24-Jun-2024 09:00Clear Sky23°C4 mph, SW0%10000m1013hPa91%
24-Jun-2024 12:00Few Clouds24°C4 mph, SW11%10000m1014hPa87%
24-Jun-2024 15:00Clear Sky30°C4 mph, SW5%10000m1015hPa62%
24-Jun-2024 18:00Clear Sky35°C2 mph, W3%10000m1014hPa46%
24-Jun-2024 21:00Scattered Clouds34°C2 mph, W39%10000m1011hPa49%
25-Jun-2024 00:00Broken Clouds28°C4 mph, SE57%10000m1011hPa72%
25-Jun-2024 03:00Broken Clouds27°C7 mph, S71%10000m1012hPa71%
25-Jun-2024 06:00Scattered Clouds25°C7 mph, SW36%10000m1013hPa85%
25-Jun-2024 09:00Clear Sky23°C4 mph, SW0%10000m1013hPa94%
25-Jun-2024 12:00Few Clouds24°C4 mph, S11%10000m1014hPa95%
25-Jun-2024 15:00Clear Sky30°C4 mph, SW4%10000m1014hPa65%
25-Jun-2024 18:00Clear Sky35°C4 mph, SW9%10000m1013hPa45%
25-Jun-2024 21:00Overcast Clouds34°C4 mph, SW92%10000m1011hPa51%
26-Jun-2024 00:00Overcast Clouds30°C9 mph, SW93%10000m1010hPa65%
26-Jun-2024 03:00Scattered Clouds28°C9 mph, SW29%10000m1012hPa73%
26-Jun-2024 06:00Few Clouds25°C7 mph, SW18%10000m1012hPa87%
26-Jun-2024 09:00Broken Clouds24°C7 mph, SW66%10000m1012hPa94%